Terminal Aerodrome Forecast
Issued by NWS

Home | Current Version | Previous Version | Text Only | Print | Product List | Glossary On
Versions: 1 2 3 4 5 6 7 8 9 10 11 12 13
000
FTUS44 KEWX 251738
TAFSSF
TAF
KSSF 251738Z 2518/2618 05010G20KT P6SM FEW250
     FM252100 08007KT P6SM FEW250
     FM260600 11005KT P6SM FEW250
     FM261130 11004KT P6SM OVC015
     FM261400 09003KT 6SM BR VCSH OVC007=

USA.gov is the U.S. government's official web portal to all federal, state and local government web resources and services.